createdAt,value
2019-05-05T04:14:09.618Z,2.60
2019-05-05T04:19:13.863Z,3.10
2019-05-05T04:24:15.483Z,2.90
2019-05-05T04:29:16.460Z,2.73
2019-05-05T04:34:17.315Z,2.67
2019-05-05T04:39:18.333Z,3.00
2019-05-05T04:44:19.200Z,2.83
2019-05-05T04:49:23.485Z,2.87
2019-05-05T04:54:33.511Z,2.80
2019-05-05T04:59:35.582Z,3.30
2019-05-05T05:04:47.821Z,3.47
2019-05-05T05:09:48.687Z,3.47
2019-05-05T05:14:49.559Z,3.43
2019-05-05T05:19:50.577Z,3.67
2019-05-05T05:24:53.960Z,3.30
2019-05-05T05:29:54.827Z,3.23
2019-05-05T05:34:55.685Z,3.30
2019-05-05T05:40:04.253Z,3.90
2019-05-05T05:45:23.771Z,3.70
2019-05-05T05:50:38.965Z,3.97
2019-05-05T05:55:39.852Z,3.37
2019-05-05T06:00:44.083Z,3.27
2019-05-05T06:05:45.120Z,4.77
2019-05-05T06:10:45.976Z,3.87
2019-05-05T06:15:46.850Z,4.17
2019-05-05T06:20:48.080Z,4.23
2019-05-05T06:25:49.019Z,3.47
2019-05-05T06:30:49.892Z,3.90
2019-05-05T06:35:50.764Z,3.57
2019-05-05T06:41:10.329Z,3.90
2019-05-05T06:46:14.608Z,4.10
2019-05-05T06:51:15.616Z,4.30
2019-05-05T06:56:16.576Z,3.90
2019-05-05T07:01:17.444Z,3.77
2019-05-05T07:06:18.357Z,4.03
2019-05-05T07:11:19.269Z,3.70
2019-05-05T07:16:20.288Z,3.87
2019-05-05T07:21:23.726Z,3.87
2019-05-05T07:26:24.436Z,4.00
2019-05-05T07:31:25.336Z,4.57
2019-05-05T07:36:40.145Z,3.60
2019-05-05T07:41:41.337Z,3.83
2019-05-05T07:46:43.957Z,3.33
2019-05-05T07:51:45.052Z,4.20
2019-05-05T07:56:45.957Z,4.53
2019-05-05T08:01:46.929Z,3.73
2019-05-05T08:06:47.807Z,3.57
2019-05-05T08:11:48.681Z,3.90
2019-05-05T08:16:57.460Z,3.60
2019-05-05T08:21:58.456Z,3.77
2019-05-05T08:27:04.665Z,3.50
2019-05-05T08:32:23.801Z,4.20
2019-05-05T08:37:25.167Z,3.63
2019-05-05T08:42:26.024Z,3.90
2019-05-05T08:47:28.310Z,4.83
2019-05-05T08:52:29.535Z,4.37
2019-05-05T08:57:30.412Z,4.20
2019-05-05T09:02:33.278Z,4.13
2019-05-05T09:07:34.574Z,4.33
2019-05-05T09:12:35.536Z,3.90
2019-05-05T09:17:36.516Z,3.87
2019-05-05T09:22:37.513Z,3.60
2019-05-05T09:27:40.359Z,4.13
2019-05-05T09:32:41.165Z,4.73
2019-05-05T09:37:44.151Z,4.17
2019-05-05T09:42:45.236Z,4.50
2019-05-05T09:47:46.120Z,3.67
2019-05-05T09:52:46.988Z,3.40
2019-05-05T09:57:47.856Z,3.63
2019-05-05T10:02:49.716Z,4.10
2019-05-05T10:07:50.616Z,4.27
2019-05-05T10:12:52.964Z,3.97
2019-05-05T10:17:54.361Z,3.87
2019-05-05T10:22:55.333Z,3.33
2019-05-05T10:27:56.910Z,4.03
2019-05-05T10:32:58.915Z,3.13
2019-05-05T10:38:00.320Z,3.57
2019-05-05T10:43:01.576Z,3.40
2019-05-05T10:48:04.080Z,3.33
2019-05-05T10:53:05.242Z,3.33
2019-05-05T10:58:06.122Z,3.57
2019-05-05T11:03:07.191Z,2.93
2019-05-05T11:08:08.176Z,2.90
2019-05-05T11:13:09.053Z,3.87
2019-05-05T11:18:09.937Z,3.40
2019-05-05T11:23:10.904Z,3.47
2019-05-05T11:28:11.896Z,3.90
2019-05-05T11:33:29.976Z,4.10
2019-05-05T11:38:30.848Z,3.37
2019-05-05T11:43:33.731Z,4.60
2019-05-05T11:48:34.822Z,4.00
2019-05-05T11:53:36.192Z,3.40
2019-05-05T11:58:37.259Z,3.43
2019-05-05T12:03:38.311Z,2.97
2019-05-05T12:08:39.213Z,3.10
2019-05-05T12:13:40.189Z,2.67
2019-05-05T12:18:41.514Z,2.53
2019-05-05T12:23:44.223Z,2.70
2019-05-05T12:28:49.786Z,3.10
2019-05-05T12:33:50.747Z,3.53
2019-05-05T12:38:54.655Z,3.73
2019-05-05T12:43:55.276Z,3.83
2019-05-05T12:48:58.225Z,3.40
2019-05-05T12:53:59.097Z,2.63
2019-05-05T12:59:03.686Z,2.30
2019-05-05T13:04:04.966Z,2.20
2019-05-05T13:09:07.313Z,2.40
2019-05-05T13:14:09.724Z,2.00
2019-05-05T13:19:16.601Z,2.73
2019-05-05T13:24:19.881Z,2.37
2019-05-05T13:29:20.745Z,2.20
2019-05-05T13:34:21.631Z,2.50
2019-05-05T13:39:24.587Z,1.97
2019-05-05T13:44:43.883Z,1.97
2019-05-05T13:49:45.163Z,1.73
2019-05-05T13:54:46.125Z,1.83
2019-05-05T13:59:47.133Z,1.93
2019-05-05T14:04:48.013Z,2.13
2019-05-05T14:09:48.888Z,1.97
2019-05-05T14:14:49.868Z,1.97
2019-05-05T14:20:04.464Z,1.70
2019-05-05T14:24:56.082Z,1.70
2019-05-05T14:29:59.525Z,1.60
2019-05-05T14:35:05.616Z,1.80
2019-05-05T14:40:06.793Z,1.90
2019-05-05T14:45:10.587Z,1.70
2019-05-05T14:50:11.847Z,1.70
2019-05-05T14:55:14.065Z,1.60
2019-05-05T15:00:17.399Z,2.00
2019-05-05T15:05:36.290Z,1.50
2019-05-05T15:10:56.538Z,1.90
2019-05-05T15:15:57.971Z,1.37
2019-05-05T15:20:59.339Z,1.50
2019-05-05T15:26:00.655Z,1.43
2019-05-05T15:31:01.737Z,1.30
2019-05-05T15:36:04.654Z,1.30
2019-05-05T15:41:05.695Z,1.70
2019-05-05T15:46:06.664Z,1.60
2019-05-05T15:51:07.646Z,1.47
2019-05-05T15:56:08.524Z,1.50
2019-05-05T16:01:09.625Z,1.80
2019-05-05T16:06:10.604Z,2.63
2019-05-05T16:11:11.504Z,2.10
2019-05-05T16:16:23.683Z,2.47
2019-05-05T16:21:38.632Z,2.73
2019-05-05T16:26:39.512Z,2.50
2019-05-05T16:31:40.380Z,2.90
2019-05-05T16:36:41.263Z,3.07
2019-05-05T16:41:43.383Z,2.60
2019-05-05T16:46:44.628Z,2.57
2019-05-05T16:51:47.419Z,3.07
2019-05-05T16:56:48.292Z,2.70
2019-05-05T17:01:49.152Z,3.63
2019-05-05T17:06:50.050Z,3.20
2019-05-05T17:12:09.019Z,3.37
2019-05-05T17:17:14.655Z,3.63
2019-05-05T17:22:17.427Z,4.40
2019-05-05T17:27:18.304Z,4.00
2019-05-05T17:32:19.179Z,3.57
2019-05-05T17:37:20.152Z,3.57
2019-05-05T17:42:34.893Z,3.17
2019-05-05T17:47:44.226Z,3.00
2019-05-05T17:52:47.551Z,3.17
2019-05-05T17:57:58.908Z,3.50
2019-05-05T18:02:51.197Z,3.00
2019-05-05T18:07:53.552Z,3.00
2019-05-05T18:13:14.820Z,2.90
2019-05-05T18:18:16.343Z,3.10
2019-05-05T18:23:17.390Z,2.50
2019-05-05T18:28:20.072Z,3.23
2019-05-05T18:33:21.664Z,3.63
2019-05-05T18:38:24.710Z,4.00
2019-05-05T18:43:30.679Z,3.43
2019-05-05T18:48:31.918Z,3.53
2019-05-05T18:53:34.164Z,3.20
2019-05-05T18:58:35.866Z,3.13
2019-05-05T19:03:44.430Z,4.00
2019-05-05T19:08:54.149Z,3.70
2019-05-05T19:13:50.096Z,3.23
2019-05-05T19:18:50.951Z,3.37
2019-05-05T19:23:53.663Z,3.20
2019-05-05T19:28:54.888Z,3.53
2019-05-05T19:33:56.059Z,4.23
2019-05-05T19:38:57.154Z,3.43
2019-05-05T19:43:57.967Z,3.17
2019-05-05T19:49:15.320Z,3.70
2019-05-05T19:54:16.492Z,3.93
2019-05-05T19:59:17.347Z,3.20
2019-05-05T20:04:18.211Z,3.50
2019-05-05T20:09:19.184Z,3.67
2019-05-05T20:14:20.046Z,3.33
2019-05-05T20:19:21.098Z,3.67
